Map

Track Data

SID SEASON NUMBER BASIN SUBBASIN NAME ISO_TIME NATURE LAT LON WMO_WIND WMO_PRES WMO_AGENCY TRACK_TYPE DIST2LAND LANDFALL IFLAG USA_AGENCY USA_ATCF_ID USA_LAT USA_LON USA_RECORD USA_STATUS USA_WIND USA_PRES USA_SSHS USA_R34_NE USA_R34_SE USA_R34_SW USA_R34_NW USA_R50_NE USA_R50_SE USA_R50_SW USA_R50_NW USA_R64_NE USA_R64_SE USA_R64_SW USA_R64_NW USA_POCI USA_ROCI USA_RMW USA_EYE TOKYO_LAT TOKYO_LON TOKYO_GRADE TOKYO_WIND TOKYO_PRES TOKYO_R50_DIR TOKYO_R50_LONG TOKYO_R50_SHORT TOKYO_R30_DIR TOKYO_R30_LONG TOKYO_R30_SHORT TOKYO_LAND CMA_LAT CMA_LON CMA_CAT CMA_WIND CMA_PRES HKO_LAT HKO_LON HKO_CAT HKO_WIND HKO_PRES NEWDELHI_LAT NEWDELHI_LON NEWDELHI_GRADE NEWDELHI_WIND NEWDELHI_PRES NEWDELHI_CI NEWDELHI_DP NEWDELHI_POCI REUNION_LAT REUNION_LON REUNION_TYPE REUNION_WIND REUNION_PRES REUNION_TNUM REUNION_CI REUNION_RMW REUNION_R34_NE REUNION_R34_SE REUNION_R34_SW REUNION_R34_NW REUNION_R50_NE REUNION_R50_SE REUNION_R50_SW REUNION_R50_NW REUNION_R64_NE REUNION_R64_SE REUNION_R64_SW REUNION_R64_NW BOM_LAT BOM_LON BOM_TYPE BOM_WIND BOM_PRES BOM_TNUM BOM_CI BOM_RMW BOM_R34_NE BOM_R34_SE BOM_R34_SW BOM_R34_NW BOM_R50_NE BOM_R50_SE BOM_R50_SW BOM_R50_NW BOM_R64_NE BOM_R64_SE BOM_R64_SW BOM_R64_NW BOM_ROCI BOM_POCI BOM_EYE BOM_POS_METHOD BOM_PRES_METHOD NADI_LAT NADI_LON NADI_CAT NADI_WIND NADI_PRES WELLINGTON_LAT WELLINGTON_LON WELLINGTON_WIND WELLINGTON_PRES DS824_LAT DS824_LON DS824_STAGE DS824_WIND DS824_PRES TD9636_LAT TD9636_LON TD9636_STAGE TD9636_WIND TD9636_PRES TD9635_LAT TD9635_LON TD9635_WIND TD9635_PRES TD9635_ROCI NEUMANN_LAT NEUMANN_LON NEUMANN_CLASS NEUMANN_WIND NEUMANN_PRES MLC_LAT MLC_LON MLC_CLASS MLC_WIND MLC_PRES USA_GUST BOM_GUST BOM_GUST_PER REUNION_GUST REUNION_GUST_PER USA_SEAHGT USA_SEARAD_NE USA_SEARAD_SE USA_SEARAD_SW USA_SEARAD_NW STORM_SPEED STORM_DIR
1911080S15065 1911 27 SI MM NOT_NAMED 1911-03-20 18:00:00 NR -15.3000 65.2000 spur-other 958 950 __________O___ -1 -15.3000 65.2000 7 2 260
1911080S15065 1911 27 SI MM NOT_NAMED 1911-03-20 21:00:00 NR -15.3186 65.0858 spur-other 950 941 __________P___ -1 -15.3186 65.0858 7 2 258
1911080S15065 1911 27 SI MM NOT_NAMED 1911-03-21 00:00:00 NR -15.3498 64.9572 spur-other 941 917 __________P___ -1 -15.3498 64.9572 7 3 252
1911080S15065 1911 27 SI MM NOT_NAMED 1911-03-21 03:00:00 NR -15.4061 64.8001 spur-other 917 893 __________P___ -1 -15.4061 64.8001 7 4 246
1911080S15065 1911 27 SI MM NOT_NAMED 1911-03-21 06:00:00 NR -15.5000 64.6000 spur-other 893 869 __________O___ -1 -15.5000 64.6000 7 5 242
1911080S15065 1911 27 SI MM NOT_NAMED 1911-03-21 09:00:00 NR -15.6392 64.3490 spur-other 860 830 __________P___ -1 -15.6392 64.3490 7 6 239
1911080S15065 1911 27 SI MM NOT_NAMED 1911-03-21 12:00:00 NR -15.8128 64.0653 spur-other 830 791 __________P___ -1 -15.8128 64.0653 7 7 237
1911080S15065 1911 27 SI MM NOT_NAMED 1911-03-21 15:00:00 NR -16.0049 63.7739 spur-other 791 752 __________P___ -1 -16.0049 63.7739 7 7 235
1911080S15065 1911 27 SI MM NOT_NAMED 1911-03-21 18:00:00 NR -16.2000 63.5000 spur-other 752 721 __________O___ -1 -16.2000 63.5000 7 6 232
1911080S15065 1911 27 SI MM NOT_NAMED 1911-03-21 21:00:00 NR -16.3871 63.2703 spur-other 721 691 __________P___ -1 -16.3871 63.2703 7 6 229
1911080S15065 1911 27 SI MM NOT_NAMED 1911-03-22 00:00:00 NR -16.5723 63.0625 spur-other 691 667 __________P___ -1 -16.5723 63.0625 7 5 227
1911080S15065 1911 27 SI MM NOT_NAMED 1911-03-22 03:00:00 NR -16.7465 62.8734 spur-other 667 637 __________P___ -1 -16.7465 62.8734 7 5 227
1911080S15065 1911 27 SI MM NOT_NAMED 1911-03-22 06:00:00 NR -16.9000 62.7000 spur-other 637 613 __________O___ -1 -16.9000 62.7000 7 4 231
1911080S15065 1911 27 SI MM NOT_NAMED 1911-03-22 09:00:00 NR -17.0134 62.5273 spur-other 613 598 __________P___ -1 -17.0134 62.5273 7 4 237
1911080S15065 1911 27 SI MM NOT_NAMED 1911-03-22 12:00:00 NR -17.1074 62.3698 spur-other 598 574 __________P___ -1 -17.1074 62.3698 7 3 237
1911080S15065 1911 27 SI MM NOT_NAMED 1911-03-22 15:00:00 NR -17.1978 62.2273 spur-other 574 559 __________P___ -1 -17.1978 62.2273 7 3 233
1911080S15065 1911 27 SI MM NOT_NAMED 1911-03-22 18:00:00 NR -17.3000 62.1000 spur-other 559 544 __________O___ -1 -17.3000 62.1000 7 3 231
1911080S15065 1911 27 SI MM NOT_NAMED 1911-03-22 21:00:00 NR -17.3991 61.9694 spur-other 544 529 __________P___ -1 -17.3991 61.9694 7 3 227
1911080S15065 1911 27 SI MM NOT_NAMED 1911-03-23 00:00:00 NR -17.5175 61.8550 spur-other 529 508 __________P___ -1 -17.5175 61.8550 7 3 215
1911080S15065 1911 27 SI MM NOT_NAMED 1911-03-23 03:00:00 NR -17.6772 61.7632 spur-other 508 487 __________P___ -1 -17.6772 61.7632 7 4 201
1911080S15065 1911 27 SI MM NOT_NAMED 1911-03-23 06:00:00 NR -17.9000 61.7000 spur-other 487 461 __________O___ -1 -17.9000 61.7000 7 6 192
1911080S15065 1911 27 SI MM NOT_NAMED 1911-03-23 09:00:00 NR -18.2346 61.6350 spur-other 461 441 __________P___ -1 -18.2346 61.6350 7 7 187
1911080S15065 1911 27 SI MM NOT_NAMED 1911-03-23 12:00:00 NR -18.6273 61.6030 spur-other 441 423 __________P___ -1 -18.6273 61.6030 7 8 182
1911080S15065 1911 27 SI MM NOT_NAMED 1911-03-23 15:00:00 NR -19.0314 61.6194 spur-other 423 416 __________P___ -1 -19.0314 61.6194 7 8 174
1911080S15065 1911 27 SI MM NOT_NAMED 1911-03-23 18:00:00 NR -19.4000 61.7000 spur-other 420 417 __________O___ -1 -19.4000 61.7000 7 7 160
1911080S15065 1911 27 SI MM NOT_NAMED 1911-03-23 21:00:00 NR -19.6805 61.8640 spur-other 433 431 __________P___ -1 -19.6805 61.8640 7 6 145
1911080S15065 1911 27 SI MM NOT_NAMED 1911-03-24 00:00:00 NR -19.9177 62.0895 spur-other 451 450 __________P___ -1 -19.9177 62.0895 7 6 134
1911080S15065 1911 27 SI MM NOT_NAMED 1911-03-24 03:00:00 NR -20.1211 62.3454 spur-other 470 470 __________P___ -1 -20.1211 62.3454 7 6 129
1911080S15065 1911 27 SI MM NOT_NAMED 1911-03-24 06:00:00 NR -20.3000 62.6000 spur-other 500 500 __________O___ -1 -20.3000 62.6000 7 6 130
1911080S15065 1911 27 SI MM NOT_NAMED 1911-03-24 09:00:00 NR -20.4755 62.8034 spur-other 521 521 __________P___ -1 -20.4755 62.8034 7 5 131
1911080S15065 1911 27 SI MM NOT_NAMED 1911-03-24 12:00:00 NR -20.6298 63.0004 spur-other 542 542 __________P___ -1 -20.6298 63.0004 7 5 129
1911080S15065 1911 27 SI MM NOT_NAMED 1911-03-24 15:00:00 NR -20.7692 63.1971 spur-other 564 564 __________P___ -1 -20.7692 63.1971 7 5 126
1911080S15065 1911 27 SI MM NOT_NAMED 1911-03-24 18:00:00 NR -20.9000 63.4000 spur-other 586 586 __________O___ -1 -20.9000 63.4000 7 5 123
1911080S15065 1911 27 SI MM NOT_NAMED 1911-03-24 21:00:00 NR -21.0274 63.6138 spur-other 608 608 __________P___ -1 -21.0274 63.6138 7 5 122
1911080S15065 1911 27 SI MM NOT_NAMED 1911-03-25 00:00:00 NR -21.1528 63.8371 spur-other 631 631 __________P___ -1 -21.1528 63.8371 7 5 121
1911080S15065 1911 27 SI MM NOT_NAMED 1911-03-25 03:00:00 NR -21.2769 64.0668 spur-other 664 664 __________P___ -1 -21.2769 64.0668 7 5 120
1911080S15065 1911 27 SI MM NOT_NAMED 1911-03-25 06:00:00 NR -21.4000 64.3000 spur-other 686 __________O___ -1 -21.4000 64.3000 7 5 119

About IBTrACS Database

This database is a web-friendly format of International Best Track Archive for Climate Stewardship (IBTrACS), a global best track data archive curated by NOAA dating back to 1842.

Updated: 2021-12-03